Time;durP1;ratioP1;P1;durP2;ratioP2;P2;SDS_P1;SDS_P2;PMS_P1;PMS_P2;Temp;Humidity;BMP_temperature;BMP_pressure;BME280_temperature;BME280_humidity;BME280_pressure;Samples;Min_cycle;Max_cycle;Signal;HPM_P1;HPM_P2
2023/03/12 00:01:22;;;;;;;;;12.00;9.00;;;;;9.48;71.84;100754.63;6277899;22;45317;-75
2023/03/12 00:03:48;;;;;;;;;12.50;10.25;;;;;9.52;74.33;100764.44;6278197;22;45211;-75
2023/03/12 00:06:14;;;;;;;;;9.50;7.25;;;;;9.51;72.33;100749.41;6277789;22;45453;-75
2023/03/12 00:08:39;;;;;;;;;15.00;13.00;;;;;9.49;76.36;100740.56;6277828;22;46250;-75
2023/03/12 00:11:10;;;;;;;;;20.50;20.00;;;;;9.51;75.11;100745.91;6277917;22;45284;-75
2023/03/12 00:13:36;;;;;;;;;17.25;17.00;;;;;9.61;74.31;100754.13;6277342;22;45286;-75
2023/03/12 00:16:04;;;;;;;;;17.50;15.25;;;;;9.56;74.60;100750.44;6278020;22;45339;-75
2023/03/12 00:18:29;;;;;;;;;18.50;13.75;;;;;9.60;74.38;100746.13;6275748;22;46850;-75
2023/03/12 00:20:55;;;;;;;;;12.25;12.25;;;;;9.52;72.89;100722.22;6277744;22;49983;-75
2023/03/12 00:23:20;;;;;;;;;17.25;12.25;;;;;9.68;75.87;100736.69;6278052;22;45029;-76
2023/03/12 00:25:46;;;;;;;;;12.25;9.25;;;;;9.46;74.94;100698.25;6278040;22;45278;-76
2023/03/12 00:28:11;;;;;;;;;13.50;11.00;;;;;9.71;72.83;100734.13;6277290;22;46265;-75
2023/03/12 00:30:36;;;;;;;;;10.75;10.25;;;;;9.75;75.10;100743.94;6277903;22;45255;-75
2023/03/12 00:33:01;;;;;;;;;14.25;11.25;;;;;9.75;76.51;100733.38;6278098;22;45421;-75
2023/03/12 00:35:27;;;;;;;;;17.00;13.00;;;;;9.73;74.22;100732.44;6301576;22;45993;-76
2023/03/12 00:37:52;;;;;;;;;12.50;12.00;;;;;9.76;76.10;100742.19;6277223;22;55674;-75
2023/03/12 00:40:17;;;;;;;;;14.50;11.50;;;;;9.70;73.58;100735.00;6277810;22;45176;-75
2023/03/12 00:42:43;;;;;;;;;12.50;10.00;;;;;9.69;74.21;100735.84;6275596;22;45288;-75
2023/03/12 00:45:08;;;;;;;;;12.75;10.75;;;;;9.69;75.18;100742.84;6277713;22;45101;-76
2023/03/12 00:47:34;;;;;;;;;14.75;13.25;;;;;9.65;75.19;100744.53;6277571;22;45996;-75
2023/03/12 00:49:59;;;;;;;;;14.00;13.00;;;;;9.58;75.60;100739.94;6277696;22;45116;-75
2023/03/12 00:52:24;;;;;;;;;18.25;12.00;;;;;9.69;74.87;100763.97;6277673;22;45168;-75
2023/03/12 00:54:50;;;;;;;;;10.50;10.50;;;;;9.60;74.32;100752.31;6277733;22;45089;-75
2023/03/12 00:57:15;;;;;;;;;13.00;13.00;;;;;9.68;73.58;100751.63;6276922;22;52054;-75
2023/03/12 00:59:41;;;;;;;;;11.50;11.00;;;;;9.72;75.54;100769.31;6276849;22;48081;-75
2023/03/12 01:02:07;;;;;;;;;11.75;11.25;;;;;9.64;75.61;100753.31;6276742;22;45494;-75
2023/03/12 01:04:33;;;;;;;;;12.50;9.50;;;;;9.67;72.71;100761.31;6277486;22;45109;-75
2023/03/12 01:06:58;;;;;;;;;15.50;11.00;;;;;9.69;74.53;100758.69;6277807;22;45895;-75
2023/03/12 01:09:23;;;;;;;;;12.00;12.00;;;;;9.74;75.41;100765.88;6277638;22;46657;-75
2023/03/12 01:11:49;;;;;;;;;10.50;9.75;;;;;9.78;75.24;100772.16;6300904;22;45229;-76
2023/03/12 01:14:14;;;;;;;;;12.50;10.00;;;;;9.68;73.50;100751.63;6277219;22;45346;-75
2023/03/12 01:16:39;;;;;;;;;18.25;12.50;;;;;9.76;75.34;100766.81;6277986;22;45397;-75
2023/03/12 01:19:05;;;;;;;;;10.75;10.00;;;;;9.75;76.74;100766.78;6274830;22;45486;-75
2023/03/12 01:21:30;;;;;;;;;13.50;12.50;;;;;9.68;75.94;100763.06;6277811;22;45412;-76
2023/03/12 01:23:56;;;;;;;;;10.50;10.25;;;;;9.77;75.35;100779.16;6275421;22;45301;-76
2023/03/12 01:26:22;;;;;;;;;13.75;12.50;;;;;9.72;75.75;100771.97;6276911;22;45273;-75
2023/03/12 01:28:48;;;;;;;;;12.50;9.00;;;;;9.61;74.14;100754.13;6276927;22;45287;-75
2023/03/12 01:31:17;;;;;;;;;16.00;12.25;;;;;9.69;77.62;100772.81;6277988;22;45090;-76
2023/03/12 01:33:43;;;;;;;;;12.50;10.25;;;;;9.63;77.66;100776.16;6276776;22;45251;-75
2023/03/12 01:36:23;;;;;;;;;13.25;11.00;;;;;9.61;75.52;100767.31;6277682;22;45255;-76
2023/03/12 01:38:54;;;;;;;;;9.75;8.00;;;;;9.62;75.70;100770.84;6277092;22;45172;-76
2023/03/12 01:41:21;;;;;;;;;13.00;11.50;;;;;9.69;75.48;100791.28;6276597;22;45221;-76
2023/03/12 01:43:46;;;;;;;;;12.00;9.25;;;;;9.59;76.15;100757.56;6276565;22;45227;-76
2023/03/12 01:46:30;;;;;;;;;13.50;13.50;;;;;9.60;75.17;100767.25;6277547;22;45597;-76
2023/03/12 01:49:09;;;;;;;;;10.75;10.50;;;;;9.65;73.22;100773.56;6277604;22;45275;-76
2023/03/12 01:51:40;;;;;;;;;9.00;5.50;;;;;9.56;75.32;100765.38;6277473;22;45188;-76
2023/03/12 01:54:11;;;;;;;;;10.50;6.00;;;;;9.58;75.18;100769.88;6276777;22;45549;-75
2023/03/12 01:56:38;;;;;;;;;11.25;10.00;;;;;9.47;76.46;100754.59;6277066;22;45302;-76
2023/03/12 01:59:09;;;;;;;;;19.25;17.00;;;;;9.43;75.39;100747.41;6276057;22;45277;-76
2023/03/12 02:01:36;;;;;;;;;18.25;16.25;;;;;9.53;75.21;100770.59;6277723;22;44664;-75
2023/03/12 02:04:01;;;;;;;;;12.75;10.00;;;;;9.45;75.37;100757.16;6276986;22;45219;-75
2023/03/12 02:06:33;;;;;;;;;11.00;5.25;;;;;9.51;74.86;100769.63;6277410;22;45158;-75
2023/03/12 02:09:01;;;;;;;;;13.25;6.25;;;;;9.45;76.31;100757.16;6277228;22;45306;-75
2023/03/12 02:11:26;;;;;;;;;17.25;11.25;;;;;9.44;74.48;100752.75;6274952;22;44598;-76
2023/03/12 02:13:51;;;;;;;;;13.50;8.75;;;;;9.44;75.43;100759.75;6276751;22;45475;-75
2023/03/12 02:16:17;;;;;;;;;28.00;26.25;;;;;9.46;76.51;100763.34;6249796;22;46381;-76
2023/03/12 02:18:44;;;;;;;;;16.50;10.00;;;;;9.44;76.07;100765.94;6277035;22;45089;-76
2023/03/12 02:21:24;;;;;;;;;14.50;9.25;;;;;9.43;76.53;100779.09;6277557;22;45233;-76
2023/03/12 02:24:01;;;;;;;;;14.00;9.75;;;;;9.35;75.07;100769.22;6276963;22;45160;-75
2023/03/12 02:26:28;;;;;;;;;5.50;5.25;;;;;9.38;75.38;100769.31;6276938;22;46165;-75
2023/03/12 02:28:55;;;;;;;;;12.50;6.75;;;;;9.36;76.94;100773.63;6276774;22;45279;-76
2023/03/12 02:31:25;;;;;;;;;12.75;6.50;;;;;9.37;76.69;100778.06;6277571;22;44752;-75
2023/03/12 02:33:52;;;;;;;;;5.00;3.75;;;;;9.36;74.21;100775.38;6276534;22;45247;-75
2023/03/12 02:36:18;;;;;;;;;10.25;8.00;;;;;9.30;75.83;100768.19;6277267;22;45146;-75
2023/03/12 02:38:46;;;;;;;;;9.00;8.75;;;;;9.36;74.95;100780.66;6278440;22;45250;-76
2023/03/12 02:41:20;;;;;;;;;7.50;7.50;;;;;9.43;74.98;100795.78;6278328;22;45187;-76
2023/03/12 02:43:56;;;;;;;;;7.25;6.00;;;;;9.39;76.57;100784.28;6277943;22;45524;-75
2023/03/12 02:46:21;;;;;;;;;14.00;10.00;;;;;9.48;76.47;100788.03;6278572;22;45176;-76
2023/03/12 02:48:47;;;;;;;;;9.00;5.75;;;;;9.40;76.64;100770.22;6278417;22;45285;-75
2023/03/12 02:51:12;;;;;;;;;11.25;8.25;;;;;9.49;75.03;100771.34;6278760;22;45196;-75
2023/03/12 02:53:38;;;;;;;;;10.25;8.25;;;;;9.47;75.08;100771.31;6278373;22;45240;-75
2023/03/12 02:56:04;;;;;;;;;12.25;6.00;;;;;9.56;76.08;100790.03;6278530;22;45196;-75
2023/03/12 02:58:29;;;;;;;;;12.25;6.25;;;;;9.63;75.07;100788.44;6277509;22;45275;-75
2023/03/12 03:00:55;;;;;;;;;7.25;6.00;;;;;9.49;76.06;100766.06;6278064;22;45220;-75
2023/03/12 03:03:20;;;;;;;;;10.50;9.00;;;;;9.69;75.64;100785.06;6277800;22;45171;-75
2023/03/12 03:05:45;;;;;;;;;13.25;9.00;;;;;9.60;76.01;100772.53;6276193;22;47164;-75
2023/03/12 03:08:10;;;;;;;;;12.00;5.75;;;;;9.63;76.24;100783.16;6278270;22;45222;-75
2023/03/12 03:10:36;;;;;;;;;10.75;9.00;;;;;9.70;75.79;100782.50;6278069;22;47587;-75
2023/03/12 03:13:01;;;;;;;;;9.25;9.25;;;;;9.65;75.31;100768.28;6277825;22;45220;-75
2023/03/12 03:15:27;;;;;;;;;9.00;6.00;;;;;9.65;78.22;100763.00;6278353;22;45335;-76
2023/03/12 03:17:52;;;;;;;;;7.50;4.25;;;;;9.71;74.59;100770.19;6277929;22;45269;-76
2023/03/12 03:20:18;;;;;;;;;9.50;6.25;;;;;9.86;77.36;100791.75;6278586;22;45213;-75
2023/03/12 03:22:44;;;;;;;;;11.00;8.75;;;;;9.82;76.43;100777.53;6277640;22;45518;-76
2023/03/12 03:25:09;;;;;;;;;9.00;5.00;;;;;9.88;74.50;100790.00;6278233;22;45701;-75
2023/03/12 03:27:35;;;;;;;;;10.00;7.00;;;;;9.93;76.81;100798.06;6277363;22;45359;-75
2023/03/12 03:30:01;;;;;;;;;7.75;4.50;;;;;9.91;74.79;100807.69;6278498;22;45173;-76
2023/03/12 03:32:26;;;;;;;;;6.00;5.00;;;;;9.92;74.29;100801.56;6277941;22;45270;-75
2023/03/12 03:34:52;;;;;;;;;12.00;8.75;;;;;9.89;76.16;100802.38;6278257;22;45252;-76
2023/03/12 03:37:17;;;;;;;;;7.25;5.75;;;;;9.89;75.27;100807.66;6278223;22;45234;-75
2023/03/12 03:39:42;;;;;;;;;6.25;6.00;;;;;9.85;74.58;100796.09;6278578;22;45259;-76
2023/03/12 03:42:08;;;;;;;;;10.75;4.00;;;;;9.90;75.87;100811.19;6277897;22;45477;-76
2023/03/12 03:44:33;;;;;;;;;9.00;6.00;;;;;9.81;76.26;100812.72;6277800;22;46077;-75
2023/03/12 03:46:59;;;;;;;;;10.75;5.00;;;;;9.85;75.47;100826.88;6277864;22;45194;-76
2023/03/12 03:49:25;;;;;;;;;10.25;4.00;;;;;9.69;75.22;100800.91;6277768;22;44745;-76
2023/03/12 03:51:52;;;;;;;;;5.00;4.75;;;;;9.72;75.61;100816.84;6278351;22;45497;-75
2023/03/12 03:54:18;;;;;;;;;6.50;5.50;;;;;9.68;76.25;100825.53;6277865;22;45385;-75
2023/03/12 03:56:44;;;;;;;;;5.75;5.75;;;;;9.64;74.60;100819.28;6277701;22;45184;-75
2023/03/12 03:59:10;;;;;;;;;10.00;5.00;;;;;9.46;75.06;100795.00;6276017;22;45276;-76
2023/03/12 04:01:35;;;;;;;;;10.25;6.00;;;;;9.64;76.07;100832.47;6278354;22;45309;-76
2023/03/12 04:04:02;;;;;;;;;11.75;6.50;;;;;9.59;76.26;100842.88;6277883;22;45318;-76
2023/03/12 04:06:28;;;;;;;;;11.50;6.25;;;;;9.48;75.54;100840.78;6278320;22;45326;-75
2023/03/12 04:08:55;;;;;;;;;8.50;5.00;;;;;9.51;76.82;100860.25;6275711;22;45287;-75
2023/03/12 04:11:21;;;;;;;;;10.00;6.00;;;;;9.49;75.70;100866.31;6277673;22;45335;-75
2023/03/12 04:13:47;;;;;;;;;6.00;5.00;;;;;9.38;75.04;100858.09;6274824;22;46568;-75
2023/03/12 04:16:13;;;;;;;;;7.50;5.00;;;;;9.37;75.86;100857.19;6278359;22;45184;-75
2023/03/12 04:18:39;;;;;;;;;10.50;7.25;;;;;9.44;76.56;100863.56;6276130;22;45246;-75
2023/03/12 04:21:07;;;;;;;;;10.75;7.75;;;;;9.47;76.33;100868.03;6278203;22;45258;-75
2023/03/12 04:23:33;;;;;;;;;9.50;4.75;;;;;9.39;76.75;100859.88;6277173;22;45214;-75
2023/03/12 04:25:58;;;;;;;;;8.00;6.00;;;;;9.36;76.29;100859.81;6278094;22;45224;-75
2023/03/12 04:28:24;;;;;;;;;5.75;4.50;;;;;9.39;76.67;100876.59;6277755;22;44649;-76
2023/03/12 04:31:01;;;;;;;;;7.25;6.00;;;;;9.39;75.18;100881.88;6276043;22;45772;-75
2023/03/12 04:33:33;;;;;;;;;5.00;4.25;;;;;9.38;76.07;100879.19;6277768;22;46056;-75
2023/03/12 04:35:58;;;;;;;;;7.50;5.50;;;;;9.38;74.69;100885.38;6278015;22;44737;-75
2023/03/12 04:38:25;;;;;;;;;8.25;5.00;;;;;9.34;76.70;100886.13;6277779;22;45298;-75
2023/03/12 04:41:03;;;;;;;;;7.50;3.00;;;;;9.43;75.38;100898.69;6278235;22;45208;-75
2023/03/12 04:43:29;;;;;;;;;9.25;6.75;;;;;9.37;75.32;100899.41;6277704;22;45160;-75
2023/03/12 04:45:55;;;;;;;;;10.00;4.50;;;;;9.46;75.93;100916.38;6275876;22;45291;-75
2023/03/12 04:48:21;;;;;;;;;10.00;6.00;;;;;9.37;76.66;100894.13;6277475;22;45219;-76
2023/03/12 04:50:46;;;;;;;;;6.00;5.00;;;;;9.48;75.75;100912.03;6275966;22;45260;-75
2023/03/12 04:53:12;;;;;;;;;9.25;6.50;;;;;9.28;76.70;100877.13;6277427;22;45264;-75
2023/03/12 04:55:37;;;;;;;;;6.00;5.50;;;;;9.41;76.67;100892.50;6278084;22;45277;-76
2023/03/12 04:58:02;;;;;;;;;6.75;3.50;;;;;9.49;77.05;100904.16;6275223;22;45280;-75
2023/03/12 05:00:28;;;;;;;;;8.25;5.00;;;;;9.51;77.52;100910.38;6278171;22;45232;-75
2023/03/12 05:02:53;;;;;;;;;11.00;6.00;;;;;9.54;77.11;100909.56;6275450;22;46893;-75
2023/03/12 05:05:19;;;;;;;;;6.50;3.75;;;;;9.58;75.76;100909.72;6277808;22;45235;-75
2023/03/12 05:07:44;;;;;;;;;9.75;5.50;;;;;9.51;75.60;100904.22;6274856;22;45193;-75
2023/03/12 05:10:10;;;;;;;;;7.25;3.75;;;;;9.61;76.91;100917.72;6277695;22;47204;-75
2023/03/12 05:12:35;;;;;;;;;7.75;4.25;;;;;9.55;76.66;100908.72;6276935;22;45943;-75
2023/03/12 05:15:00;;;;;;;;;11.00;4.00;;;;;9.63;76.07;100923.03;6277964;22;45179;-75
2023/03/12 05:17:26;;;;;;;;;12.50;5.50;;;;;9.58;75.88;100914.13;6277790;22;45101;-75
2023/03/12 05:19:52;;;;;;;;;9.25;4.75;;;;;9.70;76.42;100934.69;6277708;22;45424;-75
2023/03/12 05:22:17;;;;;;;;;8.25;4.00;;;;;9.68;76.27;100932.00;6277313;22;45196;-75
2023/03/12 05:24:43;;;;;;;;;5.00;4.75;;;;;9.73;75.74;100930.41;6277978;22;44604;-76
2023/03/12 05:27:08;;;;;;;;;10.50;5.25;;;;;9.64;76.09;100909.00;6277517;22;45156;-75
2023/03/12 05:29:34;;;;;;;;;5.50;4.00;;;;;9.63;75.53;100913.41;6277819;22;45176;-75
2023/03/12 05:32:01;;;;;;;;;5.25;5.00;;;;;9.66;76.67;100922.25;6274577;22;46742;-76
2023/03/12 05:34:29;;;;;;;;;6.75;3.25;;;;;9.75;75.13;100948.94;6275386;22;45307;-75
2023/03/12 05:36:54;;;;;;;;;11.25;6.50;;;;;9.75;75.78;100939.25;6277591;22;45288;-75
2023/03/12 05:39:20;;;;;;;;;6.25;3.00;;;;;9.74;76.26;100942.72;6276993;22;45133;-76
2023/03/12 05:41:45;;;;;;;;;8.75;4.75;;;;;9.71;75.39;100933.84;6277135;22;46509;-76
2023/03/12 05:44:12;;;;;;;;;5.50;4.00;;;;;9.83;74.76;100957.94;6277318;22;45257;-76
2023/03/12 05:46:37;;;;;;;;;7.50;4.00;;;;;9.85;76.12;100958.91;6275697;22;45235;-75
2023/03/12 05:49:03;;;;;;;;;10.00;5.25;;;;;9.70;75.84;100929.41;6277122;22;45213;-76
2023/03/12 05:51:28;;;;;;;;;9.75;4.00;;;;;9.77;75.26;100936.66;6277191;22;46023;-75
2023/03/12 05:53:54;;;;;;;;;12.00;6.00;;;;;9.77;75.67;100934.91;6277163;22;45212;-75
2023/03/12 05:56:19;;;;;;;;;8.00;4.50;;;;;9.74;74.40;100926.00;6277463;22;45210;-76
2023/03/12 05:58:47;;;;;;;;;10.25;4.00;;;;;9.90;75.04;100951.13;6276582;22;45319;-75
2023/03/12 06:01:16;;;;;;;;;9.25;4.25;;;;;9.90;74.89;100957.28;6277164;22;46511;-76
2023/03/12 06:03:42;;;;;;;;;11.75;4.00;;;;;9.88;75.08;100956.34;6274587;22;45204;-76
2023/03/12 06:06:08;;;;;;;;;7.25;4.75;;;;;9.82;75.27;100953.53;6277096;22;45373;-76
2023/03/12 06:08:34;;;;;;;;;8.00;5.75;;;;;9.91;74.75;100974.91;6277442;22;45211;-75
2023/03/12 06:10:59;;;;;;;;;6.25;4.25;;;;;9.86;75.45;100966.00;6276886;22;49672;-75
2023/03/12 06:13:26;;;;;;;;;6.00;5.50;;;;;9.97;74.49;100982.13;6278432;22;45315;-74
2023/03/12 06:15:51;;;;;;;;;8.00;5.50;;;;;9.96;75.70;100983.88;6276938;22;45198;-74
2023/03/12 06:18:16;;;;;;;;;11.25;5.25;;;;;9.87;74.90;100962.50;6277889;22;45367;-75
2023/03/12 06:20:42;;;;;;;;;6.75;5.00;;;;;9.81;74.32;100955.28;6278475;22;47523;-74
2023/03/12 06:23:07;;;;;;;;;8.25;4.00;;;;;9.85;75.02;100964.19;6278455;22;45352;-75
2023/03/12 06:25:32;;;;;;;;;14.50;4.50;;;;;9.97;74.88;100988.31;6303012;22;44957;-75
2023/03/12 06:27:58;;;;;;;;;5.75;4.00;;;;;9.95;74.20;100983.84;6278726;22;45168;-75
2023/03/12 06:30:23;;;;;;;;;7.50;3.75;;;;;9.80;75.14;100961.41;6278392;22;45173;-75
2023/03/12 06:32:48;;;;;;;;;5.25;3.25;;;;;9.89;75.20;100975.72;6278289;22;45192;-76
2023/03/12 06:35:14;;;;;;;;;5.75;5.25;;;;;9.95;74.61;100987.38;6279470;22;45412;-76
2023/03/12 06:37:39;;;;;;;;;10.25;6.25;;;;;9.91;75.23;100971.38;6274540;22;45229;-75
2023/03/12 06:40:08;;;;;;;;;11.50;4.50;;;;;9.92;75.99;100967.91;6277718;22;45265;-75
2023/03/12 06:42:34;;;;;;;;;8.00;6.00;;;;;9.93;75.11;100977.63;6276691;22;45165;-75
2023/03/12 06:44:59;;;;;;;;;5.50;4.00;;;;;9.86;75.38;100966.00;6278139;22;45247;-76
2023/03/12 06:47:25;;;;;;;;;10.75;4.50;;;;;9.97;74.61;100990.97;6277726;22;52617;-76
2023/03/12 06:49:50;;;;;;;;;9.00;6.25;;;;;10.03;75.27;101014.91;6301775;22;52259;-76
2023/03/12 06:52:15;;;;;;;;;6.50;3.00;;;;;9.99;73.71;101007.72;6278270;22;45266;-77
2023/03/12 06:54:41;;;;;;;;;9.50;3.50;;;;;10.07;74.54;101027.34;6278555;22;45141;-75
2023/03/12 06:57:06;;;;;;;;;9.00;4.25;;;;;10.08;74.56;101012.38;6277752;22;45337;-75
2023/03/12 06:59:31;;;;;;;;;10.25;5.75;;;;;10.12;74.64;101026.59;6277286;22;45290;-76
2023/03/12 07:01:57;;;;;;;;;14.00;4.75;;;;;10.06;74.70;101007.06;6278316;22;45397;-75
2023/03/12 07:04:22;;;;;;;;;8.50;4.00;;;;;10.15;74.08;101013.47;6277537;22;45307;-75
2023/03/12 07:06:50;;;;;;;;;6.50;6.00;;;;;10.12;74.08;101010.75;6277666;22;45262;-75
2023/03/12 07:09:16;;;;;;;;;9.50;3.75;;;;;10.17;74.81;101017.97;6277682;22;45236;-76
2023/03/12 07:11:42;;;;;;;;;13.25;5.75;;;;;10.14;75.77;101007.31;6277831;22;45239;-75
2023/03/12 07:14:08;;;;;;;;;12.00;6.00;;;;;10.20;74.78;101025.97;6277623;22;45232;-76
2023/03/12 07:16:33;;;;;;;;;7.00;5.00;;;;;10.22;74.73;101023.34;6277363;22;45103;-75
2023/03/12 07:18:59;;;;;;;;;14.50;5.25;;;;;10.22;74.36;101020.72;6277592;22;45263;-76
2023/03/12 07:21:24;;;;;;;;;10.00;6.75;;;;;10.26;74.05;101020.88;6277994;22;46941;-76
2023/03/12 07:23:51;;;;;;;;;9.25;5.50;;;;;10.28;75.33;101021.84;6277211;22;45305;-75
2023/03/12 07:26:17;;;;;;;;;8.25;5.50;;;;;10.23;74.91;101002.28;6277853;22;45492;-75
2023/03/12 07:28:42;;;;;;;;;6.25;4.00;;;;;10.30;75.17;101016.59;6277168;22;45280;-75
2023/03/12 07:31:07;;;;;;;;;9.50;4.75;;;;;10.15;74.61;100995.88;6278130;22;45200;-75
2023/03/12 07:33:33;;;;;;;;;9.75;4.25;;;;;10.36;74.93;101037.00;6278230;22;45200;-75
2023/03/12 07:35:59;;;;;;;;;13.00;6.00;;;;;10.46;74.50;101054.94;6278457;22;45189;-75
2023/03/12 07:38:25;;;;;;;;;7.50;5.25;;;;;10.49;74.74;101047.09;6277657;22;45467;-72
2023/03/12 07:40:56;;;;;;;;;12.50;3.75;;;;;10.64;73.93;101058.13;6275857;22;45135;-75
2023/03/12 07:43:22;;;;;;;;;13.75;4.25;;;;;10.72;73.56;101060.94;6277430;22;45287;-76
2023/03/12 07:45:49;;;;;;;;;6.00;2.00;;;;;10.74;74.00;101057.50;6277725;22;45593;-75
2023/03/12 07:48:14;;;;;;;;;9.25;5.25;;;;;10.89;72.76;101072.88;6277052;22;45236;-74
2023/03/12 07:50:40;;;;;;;;;8.75;7.25;;;;;11.01;72.80;101068.78;6276896;22;45336;-74
2023/03/12 07:53:06;;;;;;;;;6.00;5.25;;;;;11.10;73.44;101059.34;6272183;22;45191;-74
2023/03/12 07:55:33;;;;;;;;;6.50;5.75;;;;;11.23;72.21;101070.25;6276537;22;44827;-76
2023/03/12 07:57:59;;;;;;;;;11.50;4.75;;;;;11.24;72.55;101070.28;6273616;22;46477;-75
2023/03/12 08:00:25;;;;;;;;;11.00;5.75;;;;;11.16;72.47;101048.91;6276701;22;45591;-75
2023/03/12 08:02:51;;;;;;;;;7.25;5.00;;;;;11.17;72.50;101057.75;6275789;22;45227;-75
2023/03/12 08:05:17;;;;;;;;;7.25;4.75;;;;;11.07;72.74;101035.47;6276725;22;45229;-76
2023/03/12 08:07:42;;;;;;;;;6.25;5.50;;;;;11.21;72.73;101057.00;6277156;22;45322;-72
2023/03/12 08:10:09;;;;;;;;;11.50;6.00;;;;;11.12;72.46;101047.06;6275855;22;45202;-72
2023/03/12 08:12:36;;;;;;;;;8.50;6.50;;;;;11.23;72.90;101059.66;6277295;22;45244;-71
2023/03/12 08:15:02;;;;;;;;;13.00;4.75;;;;;11.14;72.74;101036.50;6277869;22;45294;-71
2023/03/12 08:17:29;;;;;;;;;9.50;5.00;;;;;11.23;72.35;101055.28;6276996;22;47376;-71
2023/03/12 08:19:54;;;;;;;;;5.75;3.25;;;;;11.25;72.56;101053.53;6277523;22;45157;-71
2023/03/12 08:22:20;;;;;;;;;10.75;5.25;;;;;11.29;72.05;101051.91;6277561;22;45205;-71
2023/03/12 08:24:45;;;;;;;;;10.50;6.00;;;;;11.41;72.71;101060.13;6277609;22;45326;-71
2023/03/12 08:27:13;;;;;;;;;7.00;4.67;;;;;11.46;71.81;101057.63;6277039;22;45378;-76
2023/03/12 08:29:39;;;;;;;;;12.75;5.50;;;;;11.45;71.73;101061.09;6277853;22;45306;-75
2023/03/12 08:32:05;;;;;;;;;7.25;5.50;;;;;11.46;71.43;101061.16;6277229;22;45263;-76
2023/03/12 08:34:32;;;;;;;;;9.67;4.67;;;;;11.44;71.70;101054.91;6272720;22;46056;-76
2023/03/12 08:36:58;;;;;;;;;9.33;4.33;;;;;11.54;71.24;101053.38;6275269;22;46985;-76
2023/03/12 08:39:23;;;;;;;;;6.00;4.00;;;;;11.61;71.28;101085.34;6277106;22;45175;-76
2023/03/12 08:41:48;;;;;;;;;7.50;4.00;;;;;11.68;71.58;101101.38;6275292;22;45195;-76
2023/03/12 08:44:14;;;;;;;;;7.75;4.75;;;;;11.69;71.23;101089.94;6276726;22;45171;-76
2023/03/12 08:46:39;;;;;;;;;6.67;4.67;;;;;11.73;71.23;101105.91;6275135;22;45418;-76
2023/03/12 08:49:04;;;;;;;;;10.00;6.67;;;;;11.79;71.32;101110.47;6277097;22;45273;-76
2023/03/12 08:51:30;;;;;;;;;11.00;7.00;;;;;11.75;71.35;101103.31;6275991;22;45289;-76
2023/03/12 08:53:55;;;;;;;;;10.25;6.75;;;;;11.85;70.88;101110.66;6277158;22;45393;-77
2023/03/12 08:56:20;;;;;;;;;15.00;4.67;;;;;11.82;70.88;101106.16;6277677;22;46187;-76
2023/03/12 08:58:46;;;;;;;;;8.00;7.00;;;;;11.91;71.01;101126.72;6276601;22;51708;-76
2023/03/12 09:01:12;;;;;;;;;6.33;3.67;;;;;11.76;70.05;101078.63;6277932;22;45187;-76
2023/03/12 09:03:39;;;;;;;;;13.75;6.00;;;;;11.98;70.41;101107.44;6277373;22;45302;-77
2023/03/12 09:06:15;;;;;;;;;9.50;5.00;;;;;12.00;70.38;101097.78;6276348;22;46017;-77
2023/03/12 09:08:42;;;;;;;;;8.67;3.33;;;;;12.15;70.32;101106.94;6274847;22;45180;-77
2023/03/12 09:11:10;;;;;;;;;7.00;4.00;;;;;12.20;69.74;101102.66;6274273;22;45260;-76
2023/03/12 09:13:35;;;;;;;;;11.00;5.00;;;;;12.34;69.57;101106.50;6276599;22;45347;-75
2023/03/12 09:16:02;;;;;;;;;6.67;5.33;;;;;12.40;68.99;101111.94;6276565;22;46045;-76
2023/03/12 09:18:29;;;;;;;;;4.67;3.67;;;;;12.36;68.29;101101.25;6277160;22;45241;-77
2023/03/12 09:20:55;;;;;;;;;5.33;5.00;;;;;12.54;68.52;101125.47;6277249;22;45191;-77
2023/03/12 09:23:20;;;;;;;;;9.33;5.00;;;;;12.65;67.87;101117.75;6276714;22;45259;-77
2023/03/12 09:25:47;;;;;;;;;7.00;3.00;;;;;12.79;67.57;101120.69;6276912;22;46397;-76
2023/03/12 09:28:13;;;;;;;;;10.00;3.67;;;;;12.85;66.67;101123.47;6276150;22;45253;-77
2023/03/12 09:30:38;;;;;;;;;5.33;4.67;;;;;12.90;67.36;101116.50;6277294;22;45247;-77
2023/03/12 09:33:04;;;;;;;;;8.33;5.00;;;;;12.89;66.88;101107.66;6276172;22;45237;-77
2023/03/12 09:35:30;;;;;;;;;5.67;5.67;;;;;12.95;67.03;101117.50;6277374;22;46277;-75
2023/03/12 09:37:56;;;;;;;;;6.00;3.00;;;;;13.05;65.04;101127.44;6274315;22;45319;-74
2023/03/12 09:40:26;;;;;;;;;3.67;3.00;;;;;13.02;65.21;101103.47;6277606;22;45387;-75
2023/03/12 09:43:00;;;;;;;;;7.33;5.67;;;;;13.25;65.19;101121.56;6275300;22;45242;-76
2023/03/12 09:45:30;;;;;;;;;8.33;5.33;;;;;13.28;65.25;101116.38;6277208;22;45278;-77
2023/03/12 09:48:05;;;;;;;;;9.67;5.67;;;;;13.36;65.89;101115.66;6277702;22;45331;-75
2023/03/12 09:50:38;;;;;;;;;6.67;3.00;;;;;13.34;64.49;101119.16;6278060;22;45293;-75
2023/03/12 09:53:30;;;;;;;;;10.00;2.67;;;;;13.38;64.83;101115.66;6276247;22;45616;-76
2023/03/12 09:55:57;;;;;;;;;7.67;6.00;;;;;13.32;65.10;101110.25;6277855;22;45173;-76
2023/03/12 09:58:31;;;;;;;;;6.33;3.67;;;;;13.32;65.00;101112.91;6282924;22;45371;-76
2023/03/12 10:01:18;;;;;;;;;11.67;4.67;;;;;13.17;64.75;101100.22;6279123;22;45338;-76
2023/03/12 10:03:56;;;;;;;;;5.00;2.00;;;;;13.15;63.26;101126.72;6276938;22;45540;-75
2023/03/12 10:06:26;;;;;;;;;10.00;4.00;;;;;13.29;63.77;101116.41;6277175;22;46601;-75
2023/03/12 10:09:20;;;;;;;;;7.33;4.00;;;;;13.50;62.68;101120.28;6277017;22;45233;-75
2023/03/12 10:12:00;;;;;;;;;7.00;3.00;;;;;13.77;63.07;101119.88;6277738;22;45256;-75
2023/03/12 10:14:41;;;;;;;;;8.00;3.00;;;;;13.97;62.52;101105.13;6277480;22;45494;-76
2023/03/12 10:17:16;;;;;;;;;8.00;3.00;;;;;14.17;62.34;101097.47;6277643;22;45209;-76
2023/03/12 10:19:58;;;;;;;;;7.33;4.00;;;;;14.28;61.76;101100.25;6277562;22;45241;-76
2023/03/12 10:22:51;;;;;;;;;6.00;4.00;;;;;14.48;60.67;101116.50;6279146;22;45280;-75
2023/03/12 10:25:44;;;;;;;;;6.33;4.00;;;;;14.51;61.32;101122.78;6278824;22;45319;-75
2023/03/12 10:28:16;;;;;;;;;6.00;2.00;;;;;14.49;60.71;101118.31;6277954;22;45468;-75
2023/03/12 10:30:47;;;;;;;;;5.00;3.00;;;;;14.45;59.73;101121.78;6277925;22;45231;-76
2023/03/12 10:33:16;;;;;;;;;5.33;5.00;;;;;14.42;58.44;101125.28;6277413;22;45346;-75
2023/03/12 10:35:42;;;;;;;;;9.67;4.33;;;;;14.34;59.31;101129.63;6277665;22;45295;-75
2023/03/12 10:38:16;;;;;;;;;8.33;5.00;;;;;14.26;60.60;101112.66;6277177;22;45913;-76
2023/03/12 10:40:42;;;;;;;;;3.67;2.00;;;;;14.32;60.89;101129.59;6278120;22;45106;-75
2023/03/12 10:43:08;;;;;;;;;5.00;4.00;;;;;14.40;60.17;101111.09;6277228;22;45300;-76
2023/03/12 10:45:56;;;;;;;;;5.33;4.00;;;;;14.54;59.44;101122.84;6277331;22;45168;-75
2023/03/12 10:48:24;;;;;;;;;6.33;3.33;;;;;14.63;60.18;101124.72;6277147;22;45329;-76
2023/03/12 10:51:11;;;;;;;;;7.67;5.00;;;;;14.70;59.10;101123.94;6277884;22;45222;-75
2023/03/12 10:53:43;;;;;;;;;7.67;4.00;;;;;14.73;58.45;101115.06;6277223;22;45259;-75
2023/03/12 10:56:14;;;;;;;;;5.33;5.33;;;;;14.76;59.98;101107.16;6276028;22;45565;-75
2023/03/12 10:58:47;;;;;;;;;9.67;5.00;;;;;14.87;58.91;101128.56;6276671;22;45279;-77
2023/03/12 11:01:25;;;;;;;;;6.00;5.00;;;;;14.83;59.27;101102.78;6277683;22;45326;-77
2023/03/12 11:03:51;;;;;;;;;6.33;3.33;;;;;14.86;58.42;101117.03;6277537;22;45310;-76
2023/03/12 11:06:26;;;;;;;;;8.33;4.33;;;;;14.86;57.23;101116.13;6278688;22;45200;-76
2023/03/12 11:09:24;;;;;;;;;4.33;4.33;;;;;14.88;60.17;101111.72;6277466;22;46372;-77
2023/03/12 11:11:49;;;;;;;;;5.33;3.33;;;;;14.78;57.32;101103.63;6225126;22;45972;-77
2023/03/12 11:14:19;;;;;;;;;2.67;2.67;;;;;14.71;58.76;101114.19;6277218;22;45253;-76
2023/03/12 11:16:44;;;;;;;;;7.00;5.33;;;;;14.69;59.18;101119.47;6277728;22;45188;-75
2023/03/12 11:19:13;;;;;;;;;5.67;4.00;;;;;14.62;58.67;101117.63;6276967;22;45459;-76
2023/03/12 11:21:39;;;;;;;;;4.00;4.00;;;;;14.53;58.80;101098.88;6277389;22;45252;-75
2023/03/12 11:24:14;;;;;;;;;5.67;4.00;;;;;14.63;58.96;101118.53;6277238;22;45363;-76
2023/03/12 11:26:50;;;;;;;;;4.00;3.67;;;;;14.58;57.72;101099.81;6277035;22;45396;-75